Time;durP1;ratioP1;P1;durP2;ratioP2;P2;SDS_P1;SDS_P2;PMS_P1;PMS_P2;Temp;Humidity;BMP_temperature;BMP_pressure;BME280_temperature;BME280_humidity;BME280_pressure;Samples;Min_cycle;Max_cycle;Signal;HPM_P1;HPM_P2
2023/05/17 00:00:10;;;;;;;20.45;4.90;;;;;;;8.41;96.46;96344.31;5073660;28;20044;-72
2023/05/17 00:02:37;;;;;;;21.05;4.70;;;;;;;8.33;95.74;96343.06;5071097;28;20044;-72
2023/05/17 00:05:04;;;;;;;18.40;4.80;;;;;;;8.15;94.88;96342.09;5070840;28;20055;-72
2023/05/17 00:07:31;;;;;;;12.43;3.63;;;;;;;8.29;94.91;96347.50;5071063;28;20110;-72
2023/05/17 00:09:57;;;;;;;19.77;4.25;;;;;;;8.34;95.10;96352.81;5070967;28;20056;-72
2023/05/17 00:12:25;;;;;;;17.75;4.93;;;;;;;8.31;95.43;96350.72;5070486;28;20260;-74
2023/05/17 00:14:52;;;;;;;18.10;4.72;;;;;;;8.33;96.34;96349.31;5070731;28;20041;-74
2023/05/17 00:17:18;;;;;;;21.55;4.95;;;;;;;8.25;95.83;96362.78;5070600;28;20045;-72
2023/05/17 00:19:45;;;;;;;25.65;5.20;;;;;;;8.34;94.91;96355.53;5070836;28;20040;-72
2023/05/17 00:22:11;;;;;;;15.60;4.45;;;;;;;8.31;94.91;96365.09;5070573;28;20040;-72
2023/05/17 00:24:38;;;;;;;19.02;4.47;;;;;;;8.33;94.96;96370.22;5070831;28;20492;-72
2023/05/17 00:27:05;;;;;;;19.80;4.32;;;;;;;8.36;94.73;96369.66;5070103;28;20048;-72
2023/05/17 00:29:33;;;;;;;15.10;4.40;;;;;;;8.33;95.05;96370.22;5070787;28;20044;-72
2023/05/17 00:31:59;;;;;;;22.77;4.68;;;;;;;8.35;95.45;96378.84;5070971;28;20539;-72
2023/05/17 00:34:26;;;;;;;21.60;4.50;;;;;;;8.33;95.25;96370.22;5070389;28;20040;-73
2023/05/17 00:36:52;;;;;;;11.30;3.30;;;;;;;8.33;94.84;96372.91;5072512;28;20052;-73
2023/05/17 00:39:19;;;;;;;17.83;4.30;;;;;;;8.32;95.56;96374.03;5071703;28;20037;-73
2023/05/17 00:41:45;;;;;;;20.92;4.82;;;;;;;8.05;95.83;96385.69;5072513;28;20044;-73
2023/05/17 00:44:12;;;;;;;20.17;4.93;;;;;;;8.16;95.57;96378.16;5072559;28;20041;-73
2023/05/17 00:46:40;;;;;;;17.02;4.18;;;;;;;8.09;95.51;96381.25;5072960;28;20051;-73
2023/05/17 00:49:06;;;;;;;24.30;5.45;;;;;;;8.06;96.24;96382.66;5065269;28;20048;-73
2023/05/17 00:51:34;;;;;;;17.88;4.22;;;;;;;8.13;96.41;96381.47;5072921;28;20051;-73
2023/05/17 00:54:01;;;;;;;24.05;5.28;;;;;;;8.07;97.07;96384.28;5073215;28;20115;-73
2023/05/17 00:56:28;;;;;;;20.60;5.03;;;;;;;8.03;97.23;96385.16;5073983;28;20040;-72
2023/05/17 00:58:55;;;;;;;27.45;5.60;;;;;;;7.83;95.45;96384.47;5074864;28;20051;-73
2023/05/17 01:01:21;;;;;;;20.52;4.65;;;;;;;7.81;95.51;96383.16;5074761;28;20047;-73
2023/05/17 01:03:49;;;;;;;12.05;4.00;;;;;;;7.91;95.12;96391.09;5074933;28;20040;-73
2023/05/17 01:06:16;;;;;;;18.02;4.68;;;;;;;7.79;96.73;96391.59;5074678;28;20400;-73
2023/05/17 01:08:43;;;;;;;18.27;5.10;;;;;;;7.78;96.31;96387.28;5072863;28;20052;-72
2023/05/17 01:11:31;;;;;;;26.33;6.38;;;;;;;7.61;95.01;96386.22;5070033;28;20040;-72
2023/05/17 01:14:08;;;;;;;23.90;4.80;;;;;;;7.70;95.50;96385.25;5069812;28;20041;-72
2023/05/17 01:16:41;;;;;;;16.08;3.95;;;;;;;7.62;94.10;96387.81;5069866;28;20044;-72
2023/05/17 01:19:22;;;;;;;16.83;4.15;;;;;;;7.76;95.21;96394.09;5073578;28;20127;-72
2023/05/17 01:22:06;;;;;;;21.90;4.53;;;;;;;7.61;95.33;96386.22;5090131;28;20040;-72
2023/05/17 01:24:43;;;;;;;17.48;4.25;;;;;;;7.54;96.03;96387.41;5089981;28;20040;-72
2023/05/17 01:27:14;;;;;;;19.40;4.75;;;;;;;7.38;96.57;96388.78;5089931;28;20069;-73
2023/05/17 01:29:44;;;;;;;25.75;5.30;;;;;;;7.44;96.92;96392.22;5089924;28;20089;-73
2023/05/17 01:32:13;;;;;;;21.23;5.32;;;;;;;7.37;95.89;96387.19;5089274;28;20046;-73
2023/05/17 01:34:41;;;;;;;17.08;4.10;;;;;;;7.45;95.65;96394.59;5089698;28;20044;-72
2023/05/17 01:37:08;;;;;;;15.85;4.20;;;;;;;7.44;95.91;96393.00;5061421;28;20043;-73
2023/05/17 01:39:35;;;;;;;23.27;4.95;;;;;;;7.46;96.04;96390.78;5069440;28;20492;-73
2023/05/17 01:42:11;;;;;;;23.52;5.05;;;;;;;7.32;95.21;96398.09;5069916;28;20504;-72
2023/05/17 01:44:45;;;;;;;24.83;4.88;;;;;;;7.39;95.70;96395.81;5069592;28;20059;-72
2023/05/17 01:47:20;;;;;;;19.45;4.68;;;;;;;7.44;94.66;96401.13;5069254;28;20056;-71
2023/05/17 01:49:52;;;;;;;19.85;4.47;;;;;;;7.44;93.36;96397.63;5078706;28;20036;-72
2023/05/17 01:52:25;;;;;;;20.70;4.57;;;;;;;7.41;93.84;96393.59;5082294;28;20045;-73
2023/05/17 01:55:04;;;;;;;18.55;4.80;;;;;;;7.40;93.38;96394.69;5069536;28;20051;-72
2023/05/17 01:57:35;;;;;;;13.98;4.10;;;;;;;7.47;94.24;96403.25;5069524;28;20412;-72
2023/05/17 02:00:06;;;;;;;15.38;3.88;;;;;;;7.35;94.07;96402.91;5069206;28;20044;-74
2023/05/17 02:02:33;;;;;;;17.35;4.32;;;;;;;7.41;93.19;96409.03;5069271;28;20048;-74
2023/05/17 02:04:59;;;;;;;17.55;4.28;;;;;;;7.47;93.67;96407.88;5069197;28;20041;-74
2023/05/17 02:07:25;;;;;;;16.05;4.05;;;;;;;7.50;93.20;96405.38;5068674;28;20040;-74
2023/05/17 02:09:52;;;;;;;19.85;4.95;;;;;;;7.55;93.32;96404.47;5069489;28;20499;-74
2023/05/17 02:12:18;;;;;;;16.40;4.70;;;;;;;7.57;93.10;96411.22;5073151;28;20063;-74
2023/05/17 02:14:45;;;;;;;19.83;4.53;;;;;;;7.34;91.83;96409.44;5073348;28;20048;-74
2023/05/17 02:17:13;;;;;;;22.13;4.68;;;;;;;7.41;93.23;96415.25;5072286;28;20040;-74
2023/05/17 02:19:40;;;;;;;23.88;4.88;;;;;;;7.49;93.32;96413.78;5073047;28;20492;-73
2023/05/17 02:22:06;;;;;;;24.58;4.82;;;;;;;7.54;92.97;96414.50;5072263;28;20040;-74
2023/05/17 02:24:33;;;;;;;18.05;4.30;;;;;;;7.49;92.82;96411.88;5073276;28;20045;-74
2023/05/17 02:26:59;;;;;;;21.88;4.55;;;;;;;7.61;92.74;96424.16;5072966;28;20523;-74
2023/05/17 02:29:26;;;;;;;15.52;4.00;;;;;;;7.64;93.56;96429.00;5072937;28;20491;-74
2023/05/17 02:31:52;;;;;;;23.55;4.80;;;;;;;7.71;93.13;96426.69;5073953;28;20041;-74
2023/05/17 02:34:20;;;;;;;18.48;4.28;;;;;;;7.71;93.29;96424.78;5073476;28;20079;-74
2023/05/17 02:36:47;;;;;;;11.00;3.47;;;;;;;7.61;93.36;96422.25;5073034;28;20049;-74
2023/05/17 02:39:13;;;;;;;19.05;4.35;;;;;;;7.67;92.41;96425.69;5072717;28;20044;-74
2023/05/17 02:41:40;;;;;;;17.77;3.88;;;;;;;7.70;92.38;96430.53;5073139;28;20045;-73
2023/05/17 02:44:06;;;;;;;24.27;4.55;;;;;;;7.77;92.57;96429.00;5071453;28;20515;-74
2023/05/17 02:46:33;;;;;;;14.88;3.58;;;;;;;7.81;92.56;96437.38;5073022;28;20052;-74
2023/05/17 02:48:59;;;;;;;25.65;4.97;;;;;;;7.84;92.92;96436.78;5072680;28;20071;-74
2023/05/17 02:51:27;;;;;;;22.00;4.45;;;;;;;7.84;93.36;96444.91;5072329;28;20405;-74
2023/05/17 02:53:53;;;;;;;22.92;4.43;;;;;;;7.82;92.72;96437.06;5072682;28;20048;-74
2023/05/17 02:56:20;;;;;;;22.95;4.13;;;;;;;7.83;92.14;96441.41;5072426;28;20075;-74
2023/05/17 02:58:46;;;;;;;19.38;3.83;;;;;;;7.83;91.63;96438.69;5073103;28;20040;-74
2023/05/17 03:01:13;;;;;;;16.70;4.05;;;;;;;7.73;92.45;96443.50;5072222;28;20043;-75
2023/05/17 03:03:39;;;;;;;27.08;4.85;;;;;;;7.76;91.04;96448.28;5072293;28;20040;-75
2023/05/17 03:06:06;;;;;;;17.77;3.97;;;;;;;7.76;91.00;96451.00;5071904;28;20048;-74
2023/05/17 03:08:34;;;;;;;20.85;4.05;;;;;;;7.75;91.34;96452.13;5072429;28;20052;-74
2023/05/17 03:11:00;;;;;;;18.13;3.53;;;;;;;7.78;90.51;96452.34;5078997;28;20045;-74
2023/05/17 03:13:27;;;;;;;31.92;5.15;;;;;;;7.78;91.10;96462.38;5072211;28;20071;-73
2023/05/17 03:15:53;;;;;;;17.10;3.40;;;;;;;7.76;88.18;96465.38;5072325;28;20041;-73
2023/05/17 03:18:20;;;;;;;11.68;2.75;;;;;;;7.74;88.30;96464.88;5071658;28;20041;-74
2023/05/17 03:20:46;;;;;;;18.65;3.53;;;;;;;7.66;88.16;96476.38;5072303;28;20041;-75
2023/05/17 03:23:13;;;;;;;12.90;3.30;;;;;;;7.56;88.87;96477.34;5070896;28;20063;-74
2023/05/17 03:25:41;;;;;;;15.10;3.22;;;;;;;7.67;89.02;96493.44;5071747;28;20527;-75
2023/05/17 03:28:07;;;;;;;19.48;4.00;;;;;;;7.71;88.68;96483.63;5071357;28;20063;-75
2023/05/17 03:30:34;;;;;;;14.77;3.20;;;;;;;7.70;87.76;96482.81;5071488;28;20041;-74
2023/05/17 03:33:00;;;;;;;18.35;3.63;;;;;;;7.70;87.81;96490.16;5071911;28;20059;-75
2023/05/17 03:35:27;;;;;;;16.17;3.38;;;;;;;7.70;88.32;96487.44;5071254;28;20041;-72
2023/05/17 03:37:53;;;;;;;17.75;3.60;;;;;;;7.61;88.54;96500.03;5071787;28;20052;-74
2023/05/17 03:40:20;;;;;;;22.50;4.30;;;;;;;7.66;88.88;96497.25;5071336;28;20440;-75
2023/05/17 03:42:48;;;;;;;15.70;3.17;;;;;;;7.69;88.67;96507.53;5072323;28;20519;-74
2023/05/17 03:45:15;;;;;;;20.88;3.90;;;;;;;7.69;88.67;96502.09;5071093;28;20047;-74
2023/05/17 03:47:41;;;;;;;16.73;3.33;;;;;;;7.70;88.65;96509.13;5071836;28;20060;-75
2023/05/17 03:50:09;;;;;;;14.98;3.30;;;;;;;7.69;88.75;96518.34;5071533;28;20555;-73
2023/05/17 03:52:35;;;;;;;20.95;3.67;;;;;;;7.69;88.20;96512.94;5071204;28;20119;-73
2023/05/17 03:55:02;;;;;;;19.60;3.50;;;;;;;7.71;88.54;96527.00;5071075;28;20491;-75
2023/05/17 03:57:28;;;;;;;16.00;3.35;;;;;;;7.65;88.02;96523.56;5072015;28;20064;-73
2023/05/17 03:59:56;;;;;;;17.60;3.38;;;;;;;7.67;87.81;96536.81;5071452;28;20048;-73
2023/05/17 04:02:22;;;;;;;21.80;4.15;;;;;;;7.64;87.94;96534.69;5070991;28;20072;-73
2023/05/17 04:04:49;;;;;;;12.68;2.80;;;;;;;7.65;87.51;96539.00;5071529;28;20039;-73
2023/05/17 04:07:16;;;;;;;14.32;2.90;;;;;;;7.59;87.65;96536.38;5062759;28;20040;-72
2023/05/17 04:09:43;;;;;;;17.13;3.30;;;;;;;7.49;87.19;96541.16;5071249;28;20051;-73
2023/05/17 04:12:10;;;;;;;25.83;3.97;;;;;;;7.39;87.95;96546.72;5070538;28;20080;-74
2023/05/17 04:14:37;;;;;;;19.10;3.58;;;;;;;7.47;87.28;96549.56;5071455;28;20068;-74
2023/05/17 04:17:05;;;;;;;21.20;4.10;;;;;;;7.54;87.89;96557.34;5071133;28;20086;-74
2023/05/17 04:19:31;;;;;;;22.85;3.65;;;;;;;7.59;88.02;96558.06;5070923;28;20102;-74
2023/05/17 04:21:58;;;;;;;20.08;3.47;;;;;;;7.58;88.77;96556.47;5070607;28;20506;-73
2023/05/17 04:24:24;;;;;;;19.38;3.10;;;;;;;7.64;88.82;96562.59;5070537;28;20056;-73
2023/05/17 04:26:51;;;;;;;14.85;3.33;;;;;;;7.64;88.19;96561.81;5071112;28;20040;-73
2023/05/17 04:29:17;;;;;;;17.63;3.55;;;;;;;7.65;87.86;96571.53;5063997;28;20060;-73
2023/05/17 04:31:45;;;;;;;11.63;2.75;;;;;;;7.66;86.90;96576.66;5070847;28;20040;-73
2023/05/17 04:34:13;;;;;;;14.80;3.28;;;;;;;7.69;85.97;96578.78;5069265;28;20048;-73
2023/05/17 04:36:40;;;;;;;14.38;3.00;;;;;;;7.71;85.83;96568.44;5070771;28;20404;-73
2023/05/17 04:39:06;;;;;;;18.15;3.50;;;;;;;7.70;85.60;96576.88;5070027;28;20040;-73
2023/05/17 04:41:33;;;;;;;18.05;3.38;;;;;;;7.69;85.87;96581.50;5070612;28;20060;-73
2023/05/17 04:43:59;;;;;;;14.70;3.03;;;;;;;7.71;85.83;96586.63;5070398;28;20044;-73
2023/05/17 04:46:26;;;;;;;19.48;3.30;;;;;;;7.69;85.51;96591.53;5069727;28;20484;-74
2023/05/17 04:48:54;;;;;;;22.48;3.55;;;;;;;7.69;86.03;96589.63;5076891;28;20558;-73
2023/05/17 04:51:23;;;;;;;5.65;1.83;;;;;;;7.73;86.08;96592.56;5061946;28;20048;-73
2023/05/17 04:53:49;;;;;;;12.35;2.58;;;;;;;7.61;85.30;96595.69;5070423;28;20106;-73
2023/05/17 04:56:16;;;;;;;18.73;3.20;;;;;;;7.66;83.82;96594.81;5069488;28;20064;-73
2023/05/17 04:58:42;;;;;;;17.33;2.97;;;;;;;7.72;84.62;96599.88;5070063;28;20045;-73
2023/05/17 05:01:09;;;;;;;17.52;3.33;;;;;;;7.71;85.08;96597.47;5069690;28;20049;-73
2023/05/17 05:03:36;;;;;;;17.10;2.95;;;;;;;7.68;84.18;96598.06;5070391;28;20047;-73
2023/05/17 05:06:03;;;;;;;18.20;3.00;;;;;;;7.70;84.77;96596.66;5069588;28;20094;-75
2023/05/17 05:08:33;;;;;;;18.88;3.35;;;;;;;7.75;84.67;96599.28;5069783;28;20114;-74
2023/05/17 05:10:59;;;;;;;17.20;3.33;;;;;;;7.76;84.22;96605.53;5069651;28;20067;-73
2023/05/17 05:13:26;;;;;;;25.35;3.95;;;;;;;7.80;84.94;96609.25;5069286;28;20041;-73
2023/05/17 05:15:52;;;;;;;17.48;3.13;;;;;;;7.76;84.84;96606.31;5069925;28;20044;-74
2023/05/17 05:18:19;;;;;;;19.67;3.63;;;;;;;7.81;84.88;96608.97;5075975;28;20044;-74
2023/05/17 05:20:48;;;;;;;20.40;3.38;;;;;;;7.87;84.84;96611.59;5070053;28;20048;-73
2023/05/17 05:23:17;;;;;;;22.55;3.65;;;;;;;7.84;85.25;96607.59;5068978;28;20486;-73
2023/05/17 05:25:45;;;;;;;19.60;3.17;;;;;;;7.85;84.29;96612.69;5069772;28;20060;-74
2023/05/17 05:28:12;;;;;;;18.00;3.03;;;;;;;7.86;84.52;96608.09;5071816;28;20048;-76
2023/05/17 05:30:39;;;;;;;22.48;3.63;;;;;;;7.87;83.18;96615.13;5089784;28;20076;-76
2023/05/17 05:33:06;;;;;;;21.10;3.30;;;;;;;7.90;82.31;96619.16;5066774;28;20045;-76
2023/05/17 05:35:32;;;;;;;11.32;2.17;;;;;;;7.83;82.22;96622.25;5068436;28;20127;-75
2023/05/17 05:38:00;;;;;;;19.38;3.47;;;;;;;7.86;80.60;96613.50;5069451;28;20049;-75
2023/05/17 05:40:27;;;;;;;17.27;2.65;;;;;;;7.77;80.76;96618.78;5069831;28;20063;-75
2023/05/17 05:42:55;;;;;;;15.02;2.80;;;;;;;7.87;82.02;96627.88;5069456;28;20124;-75
2023/05/17 05:45:21;;;;;;;23.00;3.60;;;;;;;7.87;82.04;96623.25;5068311;28;21329;-75
2023/05/17 05:47:48;;;;;;;13.02;2.70;;;;;;;7.94;80.10;96628.31;5069559;28;20561;-75
2023/05/17 05:50:14;;;;;;;15.35;3.00;;;;;;;7.88;80.35;96624.84;5069183;28;20048;-76
2023/05/17 05:52:41;;;;;;;18.77;3.63;;;;;;;7.84;80.90;96629.28;5084779;28;20044;-75
2023/05/17 05:55:08;;;;;;;11.88;2.60;;;;;;;7.79;81.29;96626.63;5081280;28;20044;-75
2023/05/17 05:57:35;;;;;;;13.13;2.38;;;;;;;7.91;81.64;96628.91;5090199;28;20051;-74
2023/05/17 06:00:03;;;;;;;16.73;3.22;;;;;;;7.99;81.59;96625.53;5089977;28;20044;-75
2023/05/17 06:02:30;;;;;;;10.85;2.50;;;;;;;7.95;81.29;96629.94;5090716;28;20126;-75
2023/05/17 06:04:56;;;;;;;14.40;2.85;;;;;;;8.01;82.40;96629.53;5082468;28;20051;-75
2023/05/17 06:07:22;;;;;;;10.60;2.35;;;;;;;7.89;80.27;96637.34;5057394;28;20067;-74
2023/05/17 06:09:49;;;;;;;14.18;2.58;;;;;;;7.65;78.40;96642.00;5070805;28;20392;-74
2023/05/17 06:12:16;;;;;;;18.38;3.40;;;;;;;7.65;78.51;96648.22;5069824;28;20048;-74
2023/05/17 06:14:43;;;;;;;14.50;2.70;;;;;;;7.92;80.24;96653.00;5071017;28;20040;-74
2023/05/17 06:17:10;;;;;;;16.88;2.78;;;;;;;8.05;79.53;96657.69;5070817;28;20056;-75
2023/05/17 06:19:37;;;;;;;15.23;2.33;;;;;;;8.09;76.58;96657.91;5078638;28;20520;-74
2023/05/17 06:22:04;;;;;;;18.95;3.20;;;;;;;8.09;77.95;96664.16;5076508;28;20045;-75
2023/05/17 06:24:30;;;;;;;18.38;3.00;;;;;;;8.11;78.81;96661.13;5076261;28;20040;-74
2023/05/17 06:26:57;;;;;;;16.15;2.97;;;;;;;8.16;77.95;96657.53;5077482;28;20049;-75
2023/05/17 06:29:23;;;;;;;15.85;3.10;;;;;;;8.17;79.35;96664.56;5093895;28;20052;-75
2023/05/17 06:31:50;;;;;;;19.75;3.15;;;;;;;8.21;77.95;96673.75;5077251;28;20049;-75
2023/05/17 06:34:18;;;;;;;18.98;3.38;;;;;;;8.18;79.65;96675.13;5076243;28;20044;-75
2023/05/17 06:36:44;;;;;;;17.15;2.72;;;;;;;8.27;80.19;96669.84;5077317;28;20049;-74
2023/05/17 06:39:11;;;;;;;24.98;3.70;;;;;;;8.24;78.22;96678.56;5073421;28;20064;-75
2023/05/17 06:41:37;;;;;;;17.02;2.90;;;;;;;8.27;79.11;96680.69;5071397;28;20044;-75
2023/05/17 06:44:04;;;;;;;23.13;3.88;;;;;;;8.26;80.71;96681.81;5070123;28;20407;-75
2023/05/17 06:46:31;;;;;;;23.50;3.90;;;;;;;8.34;79.56;96676.50;5069478;28;20048;-75
2023/05/17 06:48:57;;;;;;;19.23;3.00;;;;;;;8.29;78.93;96679.28;5070346;28;20044;-75
2023/05/17 06:51:25;;;;;;;20.02;3.63;;;;;;;8.35;79.66;96674.59;5069580;28;20075;-76
2023/05/17 06:53:51;;;;;;;18.52;3.28;;;;;;;8.36;80.97;96670.81;5069705;28;20486;-75
2023/05/17 06:56:18;;;;;;;19.27;3.20;;;;;;;8.36;78.23;96687.09;5071264;28;20040;-75
2023/05/17 06:58:44;;;;;;;17.25;3.00;;;;;;;8.44;78.76;96681.00;5078637;28;20048;-74
2023/05/17 07:01:12;;;;;;;18.13;2.97;;;;;;;8.56;77.08;96689.50;5072625;28;20047;-75
2023/05/17 07:03:38;;;;;;;16.52;2.60;;;;;;;8.59;76.12;96680.75;5073308;28;20251;-74
2023/05/17 07:06:05;;;;;;;19.30;3.00;;;;;;;8.66;77.44;96687.69;5072450;28;20045;-76
2023/05/17 07:08:35;;;;;;;23.80;3.63;;;;;;;8.67;77.04;96698.28;5072840;28;20400;-74
2023/05/17 07:11:02;;;;;;;20.35;3.50;;;;;;;8.67;75.89;96700.19;5072024;28;20044;-74
2023/05/17 07:13:28;;;;;;;21.80;3.70;;;;;;;8.68;77.82;96696.38;5065480;28;20155;-74
2023/05/17 07:15:55;;;;;;;14.63;2.60;;;;;;;8.75;78.19;96699.50;5073278;28;20673;-75
2023/05/17 07:18:21;;;;;;;16.48;2.58;;;;;;;8.80;77.88;96699.41;5072752;28;20130;-73
2023/05/17 07:20:48;;;;;;;16.80;3.08;;;;;;;8.85;78.60;96702.03;5073999;28;20487;-73
2023/05/17 07:23:14;;;;;;;20.80;2.92;;;;;;;8.90;78.32;96699.22;5073822;28;20045;-74
2023/05/17 07:25:42;;;;;;;13.27;2.53;;;;;;;8.94;78.02;96699.44;5073107;28;20068;-74
2023/05/17 07:28:09;;;;;;;21.35;3.15;;;;;;;8.92;75.17;96702.44;5090345;28;20048;-74
2023/05/17 07:30:35;;;;;;;18.63;3.35;;;;;;;9.09;74.46;96713.56;5093719;28;20051;-74
2023/05/17 07:33:02;;;;;;;34.80;4.40;;;;;;;9.24;76.02;96719.81;5090677;28;20044;-75
2023/05/17 07:35:28;;;;;;;22.80;4.13;;;;;;;9.18;75.39;96702.00;5068857;28;20043;-74
2023/05/17 07:37:55;;;;;;;30.10;4.55;;;;;;;9.06;74.78;96713.34;5082402;28;20043;-74
2023/05/17 07:40:21;;;;;;;15.23;2.60;;;;;;;8.97;76.52;96710.50;5074135;28;20056;-76
2023/05/17 07:42:49;;;;;;;15.38;2.60;;;;;;;9.29;76.07;96711.56;5085611;28;20048;-76
2023/05/17 07:45:16;;;;;;;21.23;3.50;;;;;;;9.39;76.63;96716.81;5099467;28;20134;-74
2023/05/17 07:47:42;;;;;;;10.15;2.05;;;;;;;9.48;73.48;96715.00;5090990;28;20682;-74
2023/05/17 07:50:10;;;;;;;20.70;3.10;;;;;;;9.61;72.78;96719.66;5087822;28;20503;-75
2023/05/17 07:52:36;;;;;;;17.60;2.90;;;;;;;9.77;73.25;96711.19;5091642;28;20048;-74
2023/05/17 07:55:04;;;;;;;12.73;2.13;;;;;;;9.71;72.50;96712.38;5078763;28;20575;-74
2023/05/17 07:57:31;;;;;;;15.85;2.92;;;;;;;9.81;74.62;96715.69;5071902;28;20105;-74
2023/05/17 07:59:59;;;;;;;15.63;2.67;;;;;;;10.22;72.98;96711.28;5076837;28;20050;-75
2023/05/17 08:02:25;;;;;;;9.98;1.95;;;;;;;10.51;73.75;96709.00;5097441;28;20094;-74
2023/05/17 08:04:52;;;;;;;14.95;3.00;;;;;;;10.77;69.16;96717.38;5098094;28;20044;-75
2023/05/17 08:07:18;;;;;;;27.83;3.95;;;;;;;11.14;73.06;96710.69;5086590;28;20044;-75
2023/05/17 08:09:45;;;;;;;15.18;2.20;;;;;;;11.02;66.49;96710.47;5083298;28;20046;-74
2023/05/17 08:12:11;;;;;;;24.75;3.67;;;;;;;11.29;67.29;96716.88;5078900;28;20053;-74
2023/05/17 08:14:39;;;;;;;19.45;2.80;;;;;;;11.45;65.33;96710.69;5077773;28;20047;-75
2023/05/17 08:17:07;;;;;;;19.92;2.80;;;;;;;11.53;69.65;96706.38;5076626;28;20703;-75
2023/05/17 08:19:34;;;;;;;20.77;3.17;;;;;;;12.00;68.99;96714.88;5072783;28;20044;-75
2023/05/17 08:22:03;;;;;;;19.55;3.17;;;;;;;12.32;67.66;96712.84;5071126;28;20048;-74
2023/05/17 08:24:29;;;;;;;16.17;2.53;;;;;;;12.32;61.44;96715.56;5070963;28;20043;-75
2023/05/17 08:26:56;;;;;;;23.42;3.05;;;;;;;12.58;62.58;96712.84;5071430;28;20488;-76
2023/05/17 08:29:22;;;;;;;24.15;3.00;;;;;;;12.68;59.88;96707.84;5070011;28;20090;-76
2023/05/17 08:31:50;;;;;;;16.65;2.50;;;;;;;12.98;65.37;96714.25;5071605;28;20044;-75
2023/05/17 08:34:18;;;;;;;17.20;2.50;;;;;;;13.12;60.30;96707.81;5080074;28;20048;-74
2023/05/17 08:36:45;;;;;;;16.38;2.60;;;;;;;13.20;62.33;96713.22;5091315;28;20119;-74
2023/05/17 08:39:12;;;;;;;18.92;3.40;;;;;;;13.29;59.48;96718.72;5090705;28;20062;-74
2023/05/17 08:41:39;;;;;;;19.38;2.63;;;;;;;13.20;65.83;96724.16;5091446;28;20102;-74
2023/05/17 08:44:06;;;;;;;20.45;3.22;;;;;;;13.32;58.26;96735.28;5082730;28;20393;-75
2023/05/17 08:46:33;;;;;;;16.25;2.90;;;;;;;13.29;58.92;96735.13;5066329;28;20499;-74
2023/05/17 08:49:00;;;;;;;17.02;2.65;;;;;;;12.91;56.24;96740.47;5087232;28;20055;-74
2023/05/17 08:51:28;;;;;;;20.48;3.28;;;;;;;13.02;62.49;96739.03;5090432;28;20071;-74
2023/05/17 08:53:55;;;;;;;16.98;3.00;;;;;;;13.12;58.90;96738.69;5090800;28;20073;-76
2023/05/17 08:56:24;;;;;;;15.60;3.00;;;;;;;13.32;62.07;96746.22;5078283;28;20097;-75
2023/05/17 08:58:55;;;;;;;17.88;3.08;;;;;;;13.05;54.87;96750.13;5070549;28;20045;-75
2023/05/17 09:01:22;;;;;;;18.27;2.70;;;;;;;13.34;59.97;96745.09;5080928;28;20131;-76
2023/05/17 09:03:49;;;;;;;14.48;2.50;;;;;;;13.02;56.30;96755.41;5091306;28;20044;-75
2023/05/17 09:06:17;;;;;;;21.90;3.58;;;;;;;12.68;56.95;96751.56;5090118;28;20044;-75
2023/05/17 09:08:45;;;;;;;19.73;2.63;;;;;;;12.90;59.67;96755.28;5086948;28;20068;-76
2023/05/17 09:11:11;;;;;;;17.40;2.72;;;;;;;12.53;55.19;96752.06;5070100;28;20048;-76
2023/05/17 09:13:38;;;;;;;19.15;3.15;;;;;;;12.87;59.72;96753.19;5070297;28;20063;-75
2023/05/17 09:16:13;;;;;;;15.50;2.72;;;;;;;12.46;59.37;96762.66;5069848;28;20052;-75
2023/05/17 09:18:39;;;;;;;15.07;2.30;;;;;;;12.68;57.60;96756.22;5075226;28;20044;-76
2023/05/17 09:21:08;;;;;;;20.17;3.05;;;;;;;12.74;61.31;96754.97;5073069;28;20583;-76
2023/05/17 09:23:34;;;;;;;25.52;3.85;;;;;;;13.03;58.85;96757.81;5069814;28;20106;-75
2023/05/17 09:26:06;;;;;;;17.10;2.70;;;;;;;13.16;57.81;96753.31;5070450;28;20745;-76
2023/05/17 09:28:38;;;;;;;14.13;2.70;;;;;;;13.18;60.12;96750.25;5069991;28;20028;-75
2023/05/17 09:31:06;;;;;;;9.35;1.75;;;;;;;13.34;60.13;96759.56;5069369;28;20145;-76
2023/05/17 09:33:33;;;;;;;25.95;3.75;;;;;;;13.31;53.62;96755.56;5069708;28;20040;-75
2023/05/17 09:36:00;;;;;;;20.88;3.15;;;;;;;13.17;56.62;96754.91;5070106;28;20048;-75
2023/05/17 09:38:27;;;;;;;18.92;3.03;;;;;;;13.43;56.36;96754.09;5069699;28;20032;-75
2023/05/17 09:40:54;;;;;;;20.48;3.03;;;;;;;13.60;60.13;96754.00;5070028;28;20048;-75
2023/05/17 09:43:25;;;;;;;18.77;2.88;;;;;;;13.82;60.79;96745.53;5069423;28;20519;-75
2023/05/17 09:45:56;;;;;;;24.05;2.97;;;;;;;13.92;56.61;96755.31;5070094;28;20060;-75
2023/05/17 09:48:25;;;;;;;20.98;2.95;;;;;;;13.53;57.45;96760.00;5068812;28;20480;-75
2023/05/17 09:50:52;;;;;;;13.25;2.60;;;;;;;13.56;57.66;96761.28;5084310;28;20481;-75
2023/05/17 09:53:26;;;;;;;19.67;2.92;;;;;;;13.31;61.96;96758.31;5077970;28;20048;-76
2023/05/17 09:55:53;;;;;;;18.05;2.78;;;;;;;13.73;59.92;96753.00;5075858;28;20051;-76
2023/05/17 09:58:20;;;;;;;20.88;3.33;;;;;;;13.60;58.19;96756.75;5089391;28;20053;-76
2023/05/17 10:00:51;;;;;;;16.33;3.47;;;;;;;13.36;59.12;96749.09;5089949;28;20043;-76
2023/05/17 10:03:18;;;;;;;21.75;3.47;;;;;;;13.45;55.10;96751.81;5086543;28;20093;-76
2023/05/17 10:05:46;;;;;;;20.52;3.05;;;;;;;12.99;60.64;96745.13;5069803;28;20120;-76
2023/05/17 10:08:14;;;;;;;22.38;3.30;;;;;;;13.15;57.58;96748.94;5069086;28;20110;-76
2023/05/17 10:10:41;;;;;;;13.75;2.42;;;;;;;13.25;62.75;96743.16;5069297;28;20403;-76
2023/05/17 10:13:10;;;;;;;19.38;3.72;;;;;;;13.29;59.20;96744.13;5068738;28;20056;-76
2023/05/17 10:15:38;;;;;;;15.63;2.63;;;;;;;12.83;64.04;96741.28;5069489;28;20040;-76
2023/05/17 10:18:08;;;;;;;21.20;3.17;;;;;;;12.54;61.85;96737.28;5068474;28;20050;-75
2023/05/17 10:20:36;;;;;;;20.02;3.17;;;;;;;12.10;62.57;96744.59;5069678;28;20130;-75
2023/05/17 10:23:05;;;;;;;18.33;3.33;;;;;;;12.28;61.06;96743.53;5069264;28;20041;-76
2023/05/17 10:25:31;;;;;;;15.77;2.47;;;;;;;12.32;59.49;96737.41;5068864;28;20672;-75
2023/05/17 10:27:59;;;;;;;24.35;3.10;;;;;;;12.25;62.16;96738.69;5069495;28;20041;-75
2023/05/17 10:30:26;;;;;;;24.52;4.10;;;;;;;12.00;63.96;96748.44;5069010;28;20596;-76
2023/05/17 10:32:53;;;;;;;16.00;3.20;;;;;;;12.22;64.76;96738.53;5071300;28;20041;-75
2023/05/17 10:35:21;;;;;;;20.35;3.25;;;;;;;12.35;62.95;96739.50;5072687;28;20047;-75
2023/05/17 10:37:48;;;;;;;22.52;3.63;;;;;;;12.32;61.60;96742.88;5073202;28;20044;-75
2023/05/17 10:40:18;;;;;;;21.55;3.75;;;;;;;11.88;64.45;96742.00;5072813;28;20048;-75
2023/05/17 10:42:50;;;;;;;19.35;3.42;;;;;;;11.66;62.76;96743.66;5072610;28;20041;-75
2023/05/17 10:45:20;;;;;;;16.00;2.78;;;;;;;11.89;64.39;96735.41;5072597;28;20036;-76
2023/05/17 10:47:47;;;;;;;17.92;3.00;;;;;;;11.95;64.57;96728.66;5072741;28;20037;-76
2023/05/17 10:50:14;;;;;;;26.00;4.30;;;;;;;11.40;63.06;96734.56;5072192;28;20048;-75
2023/05/17 10:52:48;;;;;;;19.88;3.10;;;;;;;11.71;66.08;96731.81;5073101;28;20048;-76
2023/05/17 10:55:18;;;;;;;19.88;3.35;;;;;;;11.90;65.67;96726.09;5072357;28;20056;-76
2023/05/17 10:58:08;;;;;;;20.25;3.42;;;;;;;11.92;64.42;96729.31;5073359;28;20048;-75
2023/05/17 11:00:39;;;;;;;18.48;3.33;;;;;;;12.24;65.75;96726.16;5072135;28;20182;-75
2023/05/17 11:03:14;;;;;;;22.27;3.83;;;;;;;12.28;64.52;96724.41;5072263;28;20068;-76
2023/05/17 11:05:42;;;;;;;20.40;6.05;;;;;;;12.29;60.43;96717.03;5064627;28;20114;-76
2023/05/17 11:08:15;;;;;;;21.52;3.80;;;;;;;12.07;60.33;96720.69;5072150;28;20040;-75
2023/05/17 11:11:08;;;;;;;19.20;3.35;;;;;;;11.69;60.23;96715.75;5065015;28;20127;-75
2023/05/17 11:13:34;;;;;;;27.23;4.38;;;;;;;11.77;61.54;96705.97;5072389;28;20045;-76
2023/05/17 11:16:04;;;;;;;16.45;3.40;;;;;;;11.83;62.95;96712.91;5072788;28;20051;-76
2023/05/17 11:18:46;;;;;;;21.60;3.58;;;;;;;11.69;62.28;96710.28;5072340;28;20035;-75
2023/05/17 11:21:14;;;;;;;20.17;3.70;;;;;;;11.82;62.72;96707.78;5071916;28;20044;-75
2023/05/17 11:23:43;;;;;;;18.23;3.60;;;;;;;11.92;62.66;96715.69;5072254;28;20531;-76
2023/05/17 11:26:18;;;;;;;30.58;4.53;;;;;;;11.83;63.42;96715.66;5071640;28;20063;-76
2023/05/17 11:28:44;;;;;;;17.48;3.05;;;;;;;12.10;61.69;96714.56;5072614;28;20048;-75
2023/05/17 11:31:11;;;;;;;14.70;3.30;;;;;;;12.23;62.31;96713.66;5072065;28;20048;-76
2023/05/17 11:33:39;;;;;;;29.05;4.63;;;;;;;12.42;62.22;96712.53;5072287;28;20149;-76